Terminal Aerodrome Forecast
Issued by NWS Wilmington, OH

Home | Current Version | Previous Version | Text Only | Print | Product List | Glossary On
Versions: 1 2 3 4 5 6 7 8 9 10 11 12 13 14 15 16 17 18 19 20 21 22 23 24 25 26
000
FTUS41 KILN 212000 AAB
TAFDAY
TAF AMD
KDAY 212056Z 2121/2218 31025G32KT P6SM BKN045
     FM220000 31014KT P6SM OVC022
     FM221300 34009KT P6SM SCT025=

USA.gov is the U.S. government's official web portal to all federal, state and local government web resources and services.